Time;durP1;ratioP1;P1;durP2;ratioP2;P2;SDS_P1;SDS_P2;PMS_P1;PMS_P2;Temp;Humidity;BMP_temperature;BMP_pressure;BME280_temperature;BME280_humidity;BME280_pressure;Samples;Min_cycle;Max_cycle;Signal;HPM_P1;HPM_P2
2022/02/26 00:00:39;;;;;;;;;;;;;;;2.15;100.00;99678.54;1707463;84;20127;-65
2022/02/26 00:03:12;;;;;;;;;;;;;;;2.20;100.00;99679.41;1708988;84;20119;-65
2022/02/26 00:05:48;;;;;;;;;;;;;;;2.24;100.00;99680.52;1708500;83;20171;-65
2022/02/26 00:08:21;;;;;;;;;;;;;;;2.28;100.00;99684.88;1679933;84;20151;-65
2022/02/26 00:10:48;;;;;;;;;;;;;;;2.30;100.00;99682.73;1708064;84;21197;-66
2022/02/26 00:13:36;;;;;;;;;;;;;;;2.32;100.00;99680.55;1715776;82;20136;-66
2022/02/26 00:16:21;;;;;;;;;;;;;;;2.35;100.00;99676.52;1708855;84;20147;-65
2022/02/26 00:18:51;;;;;;;;;;;;;;;2.40;100.00;99678.73;1707763;84;20115;-66
2022/02/26 00:21:43;;;;;;;;;;;;;;;2.41;100.00;99687.13;1709103;84;20119;-66
2022/02/26 00:24:09;;;;;;;;;;;;;;;2.40;100.00;99684.69;1707864;84;21185;-66
2022/02/26 00:26:45;;;;;;;;;;;;;;;2.41;99.95;99687.13;1719173;82;20210;-66
2022/02/26 00:29:29;;;;;;;;;;;;;;;2.43;99.83;99688.23;1724271;82;20151;-66
2022/02/26 00:31:59;;;;;;;;;;;;;;;2.45;99.63;99694.21;1677577;84;20103;-66
2022/02/26 00:34:28;;;;;;;;;;;;;;;2.43;99.44;99694.47;1705316;84;20079;-66
2022/02/26 00:36:54;;;;;;;;;;;;;;;2.41;100.00;99692.55;1705569;84;21188;-65
2022/02/26 00:39:40;;;;;;;;;;;;;;;2.41;100.00;99697.97;1705183;84;20490;-65
2022/02/26 00:42:08;;;;;;;;;;;;;;;2.40;99.90;99694.16;1705197;82;20149;-65
2022/02/26 00:44:42;;;;;;;;;;;;;;;2.38;99.65;99701.73;1705673;84;20154;-65
2022/02/26 00:47:10;;;;;;;;;;;;;;;2.35;99.33;99700.36;1700098;84;20406;-66
2022/02/26 00:49:50;;;;;;;;;;;;;;;2.31;99.19;99703.33;1705436;84;21150;-66
2022/02/26 00:52:22;;;;;;;;;;;;;;;2.27;99.08;99710.34;1705622;84;21638;-66
2022/02/26 00:54:50;;;;;;;;;;;;;;;2.22;98.99;99715.17;1705561;84;20083;-66
2022/02/26 00:57:20;;;;;;;;;;;;;;;2.18;99.83;99715.41;1678517;84;20103;-66
2022/02/26 01:00:14;;;;;;;;;;;;;;;2.17;100.00;99720.55;1705676;84;20154;-64
2022/02/26 01:02:46;;;;;;;;;;;;;;;2.17;99.65;99725.14;1705884;84;21846;-64
2022/02/26 01:05:16;;;;;;;;;;;;;;;2.13;99.33;99731.61;1705160;84;20138;-65
2022/02/26 01:08:04;;;;;;;;;;;;;;;2.09;99.26;99723.71;1705311;84;20098;-66
2022/02/26 01:10:34;;;;;;;;;;;;;;;2.05;99.24;99724.48;1705041;84;20090;-66
2022/02/26 01:13:20;;;;;;;;;;;;;;;2.02;99.23;99737.17;1705509;84;20122;-66
2022/02/26 01:15:50;;;;;;;;;;;;;;;1.99;99.23;99733.08;1697672;84;21062;-65
2022/02/26 01:18:19;;;;;;;;;;;;;;;1.97;99.44;99739.29;1668038;85;20092;-66
2022/02/26 01:20:52;;;;;;;;;;;;;;;1.97;100.00;99733.34;1692639;85;20218;-65
2022/02/26 01:23:21;;;;;;;;;;;;;;;1.95;99.57;99740.08;1721782;83;20456;-65
2022/02/26 01:25:51;;;;;;;;;;;;;;;1.93;99.31;99746.28;1726937;83;20125;-65
2022/02/26 01:28:21;;;;;;;;;;;;;;;1.90;99.08;99744.08;1726880;83;21064;-65
2022/02/26 01:31:10;;;;;;;;;;;;;;;1.85;98.94;99751.61;1706321;83;20103;-65
2022/02/26 01:33:35;;;;;;;;;;;;;;;1.81;98.78;99741.01;1697725;84;20122;-65
2022/02/26 01:36:04;;;;;;;;;;;;;;;1.77;98.76;99748.00;1697936;84;20099;-65
2022/02/26 01:38:45;;;;;;;;;;;;;;;1.75;99.32;99753.38;1697552;84;20111;-64
2022/02/26 01:41:07;;;;;;;;;;;;;;;1.72;99.57;99754.73;1694136;84;21001;-64
2022/02/26 01:43:33;;;;;;;;;;;;;;;1.70;99.40;99760.12;1697280;83;20418;-64
2022/02/26 01:46:02;;;;;;;;;;;;;;;1.67;99.25;99761.44;1698041;84;20103;-64
2022/02/26 01:48:35;;;;;;;;;;;;;;;1.63;99.38;99758.42;1697686;84;20436;-64
2022/02/26 01:51:09;;;;;;;;;;;;;;;1.62;99.39;99758.67;1673518;84;20099;-65
2022/02/26 01:53:59;;;;;;;;;;;;;;;1.60;99.34;99758.92;1697981;84;21154;-64
2022/02/26 01:56:25;;;;;;;;;;;;;;;1.59;99.28;99768.64;1691659;84;20087;-64
2022/02/26 01:58:58;;;;;;;;;;;;;;;1.55;99.37;99763.45;1698174;84;20095;-64
2022/02/26 02:01:31;;;;;;;;;;;;;;;1.55;100.00;99771.56;1698123;84;20123;-65
2022/02/26 02:03:54;;;;;;;;;;;;;;;1.51;100.00;99775.84;1697033;84;20150;-64
2022/02/26 02:06:39;;;;;;;;;;;;;;;1.48;100.00;99777.16;1697985;83;20150;-64
2022/02/26 02:09:09;;;;;;;;;;;;;;;1.44;100.00;99772.50;1672826;84;20143;-64
2022/02/26 02:11:57;;;;;;;;;;;;;;;1.42;100.00;99778.70;1697932;84;20162;-64
2022/02/26 02:14:44;;;;;;;;;;;;;;;1.38;100.00;99781.61;1697971;84;20114;-65
2022/02/26 02:17:35;;;;;;;;;;;;;;;1.30;100.00;99779.63;1730351;82;20096;-65
2022/02/26 02:20:24;;;;;;;;;;;;;;;1.27;100.00;99783.36;1725373;83;21178;-65
2022/02/26 02:22:53;;;;;;;;;;;;;;;1.28;100.00;99793.11;1722533;82;20084;-65
2022/02/26 02:25:30;;;;;;;;;;;;;;;1.27;100.00;99793.64;1712631;84;20181;-65
2022/02/26 02:28:05;;;;;;;;;;;;;;;1.23;100.00;99797.09;1711475;84;20154;-66
2022/02/26 02:30:28;;;;;;;;;;;;;;;1.18;100.00;99799.19;1686203;84;20102;-65
2022/02/26 02:32:57;;;;;;;;;;;;;;;1.13;100.00;99797.80;1711919;84;20779;-66
2022/02/26 02:35:33;;;;;;;;;;;;;;;1.11;100.00;99799.92;1712889;84;20086;-66
2022/02/26 02:38:08;;;;;;;;;;;;;;;1.08;100.00;99803.13;1712628;84;20422;-63
2022/02/26 02:40:53;;;;;;;;;;;;;;;1.06;100.00;99803.90;1712739;84;20099;-64
2022/02/26 02:43:45;;;;;;;;;;;;;;;1.04;100.00;99804.68;1712874;84;20434;-64
2022/02/26 02:46:34;;;;;;;;;;;;;;;1.04;100.00;99808.73;1712723;84;21212;-64
2022/02/26 02:49:04;;;;;;;;;;;;;;;1.02;100.00;99809.52;1687371;84;20403;-64
2022/02/26 02:51:52;;;;;;;;;;;;;;;0.98;100.00;99812.42;1712776;84;20434;-64
2022/02/26 02:54:24;;;;;;;;;;;;;;;0.96;100.00;99817.26;1677552;84;20090;-65
2022/02/26 02:56:51;;;;;;;;;;;;;;;0.91;100.00;99813.94;1719614;83;20194;-65
2022/02/26 02:59:24;;;;;;;;;;;;;;;0.87;100.00;99816.03;1701179;83;21177;-65
2022/02/26 03:01:57;;;;;;;;;;;;;;;0.85;100.00;99815.45;1707853;83;20118;-64
2022/02/26 03:04:44;;;;;;;;;;;;;;;0.84;100.00;99817.34;1699811;84;20438;-63
2022/02/26 03:07:19;;;;;;;;;;;;;;;0.82;100.00;99826.75;1684646;84;20138;-63
2022/02/26 03:09:50;;;;;;;;;;;;;;;0.77;100.00;99821.27;1708934;84;20138;-64
2022/02/26 03:12:22;;;;;;;;;;;;;;;0.74;100.00;99827.16;1711366;84;22249;-64
2022/02/26 03:14:53;;;;;;;;;;;;;;;0.70;100.00;99827.36;1688158;84;20126;-64
2022/02/26 03:17:25;;;;;;;;;;;;;;;0.65;100.00;99831.61;1707510;82;20137;-64
2022/02/26 03:19:59;;;;;;;;;;;;;;;0.60;100.00;99834.22;1699557;84;20087;-64
2022/02/26 03:22:26;;;;;;;;;;;;;;;0.56;100.00;99838.50;1699227;84;20103;-65
2022/02/26 03:24:56;;;;;;;;;;;;;;;0.52;100.00;99837.35;1675268;84;20107;-64
2022/02/26 03:27:27;;;;;;;;;;;;;;;0.48;100.00;99834.02;1699668;84;20099;-64
2022/02/26 03:30:14;;;;;;;;;;;;;;;0.45;100.00;99841.27;1700706;83;20481;-65
2022/02/26 03:32:46;;;;;;;;;;;;;;;0.40;100.00;99846.57;1696451;84;20237;-64
2022/02/26 03:35:29;;;;;;;;;;;;;;;0.38;100.00;99848.16;1675540;85;20101;-64
2022/02/26 03:38:19;;;;;;;;;;;;;;;0.33;100.00;99849.41;1694908;83;20147;-64
2022/02/26 03:40:48;;;;;;;;;;;;;;;0.28;100.00;99852.84;1719296;82;20153;-65
2022/02/26 03:43:33;;;;;;;;;;;;;;;0.25;100.00;99856.02;1678545;85;20096;-63
2022/02/26 03:46:18;;;;;;;;;;;;;;;0.24;100.00;99861.13;1687933;85;20455;-63
2022/02/26 03:48:48;;;;;;;;;;;;;;;0.22;100.00;99863.25;1685457;85;20430;-64
2022/02/26 03:51:15;;;;;;;;;;;;;;;0.22;100.00;99874.58;1684934;85;21103;-64
2022/02/26 03:54:02;;;;;;;;;;;;;;;0.19;100.00;99883.98;1685510;85;20147;-64
2022/02/26 03:56:34;;;;;;;;;;;;;;;0.11;100.00;99883.53;1685561;85;20111;-64
2022/02/26 03:59:23;;;;;;;;;;;;;;;0.03;100.00;99882.55;1685828;85;20088;-64
2022/02/26 04:01:50;;;;;;;;;;;;;;;-0.07;100.00;99890.77;1685493;85;20088;-64
2022/02/26 04:04:21;;;;;;;;;;;;;;;-0.12;100.00;99891.18;1684928;85;21147;-65
2022/02/26 04:06:47;;;;;;;;;;;;;;;-0.11;100.00;99901.73;1685698;85;20104;-65
2022/02/26 04:09:23;;;;;;;;;;;;;;;-0.14;100.00;99904.91;1686001;85;20099;-65
2022/02/26 04:12:09;;;;;;;;;;;;;;;-0.21;100.00;99904.74;1685852;85;20463;-66
2022/02/26 04:14:39;;;;;;;;;;;;;;;-0.30;100.00;99914.25;1662179;85;20088;-66
2022/02/26 04:17:13;;;;;;;;;;;;;;;-0.36;100.00;99920.88;1684923;85;21176;-66
2022/02/26 04:19:40;;;;;;;;;;;;;;;-0.40;100.00;99926.98;1685398;84;20133;-65
2022/02/26 04:22:16;;;;;;;;;;;;;;;-0.46;100.00;99931.44;1685445;85;20501;-65
2022/02/26 04:24:40;;;;;;;;;;;;;;;-0.49;100.00;99932.43;1715703;83;20097;-64
2022/02/26 04:27:08;;;;;;;;;;;;;;;-0.52;100.00;99936.41;1685907;85;20107;-65
2022/02/26 04:29:53;;;;;;;;;;;;;;;-0.50;100.00;99946.44;1685297;84;20127;-66
2022/02/26 04:32:19;;;;;;;;;;;;;;;-0.53;100.00;99950.13;1686457;84;20128;-65
2022/02/26 04:34:48;;;;;;;;;;;;;;;-0.58;100.00;99953.56;1686996;85;20107;-67
2022/02/26 04:37:33;;;;;;;;;;;;;;;-0.57;100.00;99953.82;1686781;85;20095;-67
2022/02/26 04:39:59;;;;;;;;;;;;;;;-0.57;100.00;99960.56;1663256;85;20132;-65
2022/02/26 04:42:30;;;;;;;;;;;;;;;-0.54;100.00;99972.23;1718394;82;21146;-65
2022/02/26 04:44:58;;;;;;;;;;;;;;;-0.57;100.00;99975.39;1705766;83;20146;-66
2022/02/26 04:47:47;;;;;;;;;;;;;;;-0.56;100.00;99970.83;1705274;83;20364;-66
2022/02/26 04:50:15;;;;;;;;;;;;;;;-0.47;100.00;99990.48;1682862;84;20079;-64
2022/02/26 04:52:47;;;;;;;;;;;;;;;-0.44;100.00;99984.62;1675011;85;20103;-64
2022/02/26 04:55:12;;;;;;;;;;;;;;;-0.43;100.00;99987.61;1715655;83;21964;-66
2022/02/26 04:57:40;;;;;;;;;;;;;;;-0.42;100.00;99993.30;1703649;84;20093;-66
2022/02/26 05:00:10;;;;;;;;;;;;;;;-0.41;100.00;100000.34;1691258;85;20448;-66
2022/02/26 05:02:38;;;;;;;;;;;;;;;-0.44;100.00;100001.33;1669328;86;20438;-66
2022/02/26 05:05:08;;;;;;;;;;;;;;;-0.46;100.00;100000.21;1713312;83;20441;-65
2022/02/26 05:07:38;;;;;;;;;;;;;;;-0.42;100.00;100014.06;1653557;86;20092;-65
2022/02/26 05:10:06;;;;;;;;;;;;;;;-0.38;100.00;100013.89;1674106;85;20126;-64
2022/02/26 05:12:37;;;;;;;;;;;;;;;-0.35;100.00;100018.82;1689024;85;20120;-65
2022/02/26 05:15:09;;;;;;;;;;;;;;;-0.37;100.00;100017.70;1668581;85;20100;-64
2022/02/26 05:17:42;;;;;;;;;;;;;;;-0.35;100.00;100017.47;1676781;84;20155;-65
2022/02/26 05:20:27;;;;;;;;;;;;;;;-0.33;100.00;100018.05;1701574;84;20525;-65
2022/02/26 05:22:58;;;;;;;;;;;;;;;-0.30;100.00;100024.87;1700609;84;20172;-64
2022/02/26 05:25:30;;;;;;;;;;;;;;;-0.28;100.00;100026.80;1672609;84;20187;-65
2022/02/26 05:28:03;;;;;;;;;;;;;;;-0.25;100.00;100027.16;1700498;84;20154;-65
2022/02/26 05:30:30;;;;;;;;;;;;;;;-0.18;100.00;100025.70;1687286;84;20131;-65
2022/02/26 05:32:58;;;;;;;;;;;;;;;-0.11;100.00;100029.93;1672474;84;21141;-65
2022/02/26 05:35:33;;;;;;;;;;;;;;;-0.08;100.00;100034.04;1646960;86;20134;-65
2022/02/26 05:38:18;;;;;;;;;;;;;;;-0.06;100.00;100030.05;1692621;84;20669;-65
2022/02/26 05:40:48;;;;;;;;;;;;;;;-0.04;100.00;100031.98;1700539;84;20180;-64
2022/02/26 05:43:16;;;;;;;;;;;;;;;-0.03;100.00;100030.93;1674837;84;20179;-65
2022/02/26 05:46:17;;;;;;;;;;;;;;;0.00;100.00;100038.53;1700538;84;20187;-65
2022/02/26 05:48:34;;;;;;;;;;;;;;;0.05;100.00;100040.52;1718088;83;20100;-65
2022/02/26 05:51:02;;;;;;;;;;;;;;;0.11;100.00;100041.47;1702795;83;20150;-65
2022/02/26 05:53:35;;;;;;;;;;;;;;;0.16;100.00;100053.73;1715623;83;20475;-65
2022/02/26 05:56:20;;;;;;;;;;;;;;;0.19;100.00;100050.03;1714971;83;20132;-65
2022/02/26 05:58:53;;;;;;;;;;;;;;;0.22;100.00;100055.48;1713480;82;20452;-65
2022/02/26 06:01:35;;;;;;;;;;;;;;;0.22;100.00;100056.31;1660990;86;20212;-64
2022/02/26 06:04:04;;;;;;;;;;;;;;;0.23;100.00;100065.23;1667025;86;20173;-64
2022/02/26 06:06:32;;;;;;;;;;;;;;;0.28;100.00;100076.16;1667111;86;20101;-66
2022/02/26 06:09:01;;;;;;;;;;;;;;;0.33;100.00;100077.62;1666880;86;20105;-64
2022/02/26 06:11:31;;;;;;;;;;;;;;;0.39;100.00;100080.73;1665174;84;21968;-64
2022/02/26 06:14:23;;;;;;;;;;;;;;;0.49;100.00;100082.30;1666967;86;20468;-65
2022/02/26 06:16:55;;;;;;;;;;;;;;;0.54;100.00;100087.82;1676004;83;20223;-65
2022/02/26 06:19:39;;;;;;;;;;;;;;;0.60;100.00;100090.07;1676921;83;20153;-65
2022/02/26 06:22:08;;;;;;;;;;;;;;;0.75;100.00;100096.34;1705805;83;20148;-65
2022/02/26 06:24:43;;;;;;;;;;;;;;;0.83;100.00;100100.02;1716271;83;21243;-65
2022/02/26 06:27:28;;;;;;;;;;;;;;;0.85;100.00;100106.84;1718156;83;20101;-65
2022/02/26 06:29:55;;;;;;;;;;;;;;;0.93;100.00;100109.70;1714748;83;20123;-66
2022/02/26 06:32:40;;;;;;;;;;;;;;;1.01;100.00;100116.62;1702271;84;20162;-65
2022/02/26 06:35:10;;;;;;;;;;;;;;;1.12;100.00;100111.17;1703566;84;20119;-65
2022/02/26 06:37:37;;;;;;;;;;;;;;;1.23;100.00;100119.75;1703447;84;21114;-66
2022/02/26 06:40:25;;;;;;;;;;;;;;;1.32;100.00;100118.31;1703580;84;20107;-65
2022/02/26 06:43:01;;;;;;;;;;;;;;;1.41;100.00;100119.28;1703447;84;20102;-66
2022/02/26 06:45:43;;;;;;;;;;;;;;;1.47;100.00;100121.84;1708185;83;20101;-67
2022/02/26 06:48:31;;;;;;;;;;;;;;;1.54;100.00;100119.81;1710943;83;20089;-67
2022/02/26 06:51:16;;;;;;;;;;;;;;;1.63;100.00;100130.53;1718865;83;20125;-67
2022/02/26 06:53:49;;;;;;;;;;;;;;;1.74;100.00;100135.56;1689883;83;20086;-67
2022/02/26 06:56:15;;;;;;;;;;;;;;;1.81;100.00;100132.70;1718795;83;20476;-67
2022/02/26 06:59:00;;;;;;;;;;;;;;;1.88;100.00;100142.31;1718720;83;20125;-68
2022/02/26 07:01:30;;;;;;;;;;;;;;;2.06;100.00;100150.75;1715534;83;20428;-67
2022/02/26 07:03:58;;;;;;;;;;;;;;;2.46;100.00;100153.81;1718705;83;21270;-67
2022/02/26 07:06:26;;;;;;;;;;;;;;;3.06;100.00;100153.83;1689576;83;20451;-66
2022/02/26 07:08:53;;;;;;;;;;;;;;;3.68;99.77;100151.28;1714664;82;20415;-66
2022/02/26 07:11:42;;;;;;;;;;;;;;;4.15;96.93;100157.69;1711287;83;20111;-67
2022/02/26 07:14:14;;;;;;;;;;;;;;;4.61;92.20;100157.52;1708656;83;20500;-70
2022/02/26 07:16:58;;;;;;;;;;;;;;;4.95;89.48;100158.52;1710723;83;20177;-74
2022/02/26 07:19:31;;;;;;;;;;;;;;;5.28;88.04;100162.19;1716214;83;20427;-68
2022/02/26 07:21:59;;;;;;;;;;;;;;;5.55;85.80;100158.48;1717110;83;20453;-68
2022/02/26 07:24:51;;;;;;;;;;;;;;;5.86;82.90;100162.90;1718446;83;20117;-68
2022/02/26 07:27:17;;;;;;;;;;;;;;;6.24;82.29;100164.89;1716218;83;20121;-68
2022/02/26 07:29:48;;;;;;;;;;;;;;;6.63;80.00;100165.13;1712863;83;39931;-68
2022/02/26 07:32:15;;;;;;;;;;;;;;;6.94;75.97;100176.78;1694397;84;20075;-79
2022/02/26 07:35:00;;;;;;;;;;;;;;;7.11;74.27;100180.02;1694383;84;20122;-77
2022/02/26 07:37:46;;;;;;;;;;;;;;;7.28;73.58;100181.88;1694352;84;20131;-78
2022/02/26 07:40:13;;;;;;;;;;;;;;;7.56;71.97;100175.47;1694636;84;20131;-74
2022/02/26 07:42:39;;;;;;;;;;;;;;;7.75;69.81;100184.66;1702764;83;21838;-83
2022/02/26 07:45:06;;;;;;;;;;;;;;;7.89;68.62;100177.48;1709863;83;20167;-87
2022/02/26 07:47:51;;;;;;;;;;;;;;;7.82;64.97;100193.92;1712583;83;20086;-82
2022/02/26 07:50:17;;;;;;;;;;;;;;;7.71;66.07;100186.32;1716657;83;21143;-86
2022/02/26 07:52:44;;;;;;;;;;;;;;;7.93;67.18;100193.59;1702103;84;20120;-73
2022/02/26 07:55:10;;;;;;;;;;;;;;;8.21;65.84;100179.70;1702420;83;21153;-70
2022/02/26 07:57:37;;;;;;;;;;;;;;;8.47;64.58;100185.83;1702598;83;20419;-83
2022/02/26 08:00:05;;;;;;;;;;;;;;;8.68;62.85;100191.10;1702137;84;20152;-71
2022/02/26 08:02:33;;;;;;;;;;;;;;;8.91;61.99;100187.60;1702282;84;20466;-71
2022/02/26 08:05:00;;;;;;;;;;;;;;;9.18;59.67;100193.34;1702122;84;20199;-69
2022/02/26 08:07:45;;;;;;;;;;;;;;;9.31;60.10;100188.25;1702149;84;20116;-70
2022/02/26 08:10:12;;;;;;;;;;;;;;;9.54;58.24;100187.42;1702182;84;20159;-70
2022/02/26 08:12:40;;;;;;;;;;;;;;;9.48;56.12;100185.30;1702073;84;20151;-87
2022/02/26 08:15:07;;;;;;;;;;;;;;;9.39;55.40;100197.20;1702013;83;21218;-73
2022/02/26 08:17:38;;;;;;;;;;;;;;;9.34;55.91;100195.89;1702175;84;20446;-70
2022/02/26 08:20:07;;;;;;;;;;;;;;;9.41;54.76;100199.09;1701950;84;21120;-69
2022/02/26 08:22:34;;;;;;;;;;;;;;;9.49;54.99;100198.45;1701190;84;20115;-68
2022/02/26 08:25:04;;;;;;;;;;;;;;;9.77;54.17;100196.73;1700975;84;20173;-70
2022/02/26 08:27:31;;;;;;;;;;;;;;;9.85;52.12;100187.82;1658872;85;20266;-70
2022/02/26 08:30:16;;;;;;;;;;;;;;;9.87;53.04;100191.90;1661292;85;20148;-69
2022/02/26 08:33:01;;;;;;;;;;;;;;;9.97;52.24;100184.64;1658990;85;21237;-69
2022/02/26 08:35:27;;;;;;;;;;;;;;;10.07;53.11;100189.98;1656711;86;20101;-69
2022/02/26 08:37:54;;;;;;;;;;;;;;;10.39;52.15;100186.52;1668446;86;20165;-68
2022/02/26 08:40:22;;;;;;;;;;;;;;;10.68;51.97;100189.03;1650623;86;20552;-68
2022/02/26 08:42:48;;;;;;;;;;;;;;;11.04;50.67;100192.75;1666306;86;20424;-68
2022/02/26 08:45:15;;;;;;;;;;;;;;;11.35;49.01;100197.11;1674508;85;22391;-70
2022/02/26 08:47:42;;;;;;;;;;;;;;;11.41;48.39;100200.58;1697253;84;20114;-69
2022/02/26 08:50:13;;;;;;;;;;;;;;;11.43;46.84;100202.46;1697092;84;20206;-70
2022/02/26 08:52:40;;;;;;;;;;;;;;;11.30;48.07;100196.39;1696871;84;20121;-69
2022/02/26 08:55:07;;;;;;;;;;;;;;;11.23;46.60;100201.73;1697037;83;20144;-69
2022/02/26 08:57:35;;;;;;;;;;;;;;;11.19;47.51;100195.77;1696993;84;21197;-69
2022/02/26 09:00:20;;;;;;;;;;;;;;;11.13;46.64;100208.80;1696969;83;20456;-69
2022/02/26 09:02:46;;;;;;;;;;;;;;;11.37;45.01;100207.80;1697228;84;20152;-69
2022/02/26 09:05:12;;;;;;;;;;;;;;;11.49;45.08;100214.43;1696981;84;20137;-69
2022/02/26 09:07:57;;;;;;;;;;;;;;;11.50;45.58;100209.19;1695209;84;20162;-71
2022/02/26 09:10:25;;;;;;;;;;;;;;;11.64;44.90;100220.71;1682169;83;20154;-68
2022/02/26 09:12:51;;;;;;;;;;;;;;;11.78;44.01;100220.98;1692172;83;20478;-68
2022/02/26 09:15:17;;;;;;;;;;;;;;;11.89;43.87;100217.47;1723193;83;20322;-68
2022/02/26 09:17:45;;;;;;;;;;;;;;;11.79;42.40;100215.74;1726054;83;20139;-69
2022/02/26 09:20:12;;;;;;;;;;;;;;;11.58;43.69;100222.75;1725964;83;20207;-68
2022/02/26 09:22:40;;;;;;;;;;;;;;;11.27;43.36;100217.62;1725897;83;21200;-68
2022/02/26 09:25:09;;;;;;;;;;;;;;;11.03;44.92;100217.22;1725947;83;20525;-68
2022/02/26 09:27:35;;;;;;;;;;;;;;;11.00;43.99;100219.76;1725878;83;20167;-70
2022/02/26 09:30:04;;;;;;;;;;;;;;;11.12;44.00;100215.97;1716580;83;20182;-68
2022/02/26 09:32:33;;;;;;;;;;;;;;;11.47;43.61;100216.67;1695597;84;20157;-68
2022/02/26 09:34:59;;;;;;;;;;;;;;;11.72;42.98;100222.19;1695373;84;21120;-69
2022/02/26 09:37:28;;;;;;;;;;;;;;;12.08;41.36;100218.70;1695173;84;20505;-69
2022/02/26 09:39:58;;;;;;;;;;;;;;;12.19;40.40;100220.89;1695870;84;20131;-69
2022/02/26 09:42:23;;;;;;;;;;;;;;;12.08;38.48;100225.59;1711830;83;20116;-69
2022/02/26 09:45:08;;;;;;;;;;;;;;;12.15;38.66;100223.20;1669005;86;20168;-68
2022/02/26 09:47:36;;;;;;;;;;;;;;;12.38;39.36;100218.55;1669067;86;20747;-70
2022/02/26 09:50:04;;;;;;;;;;;;;;;12.43;39.08;100225.31;1668865;86;20213;-69
2022/02/26 09:52:50;;;;;;;;;;;;;;;12.48;36.54;100221.88;1669202;86;20121;-73
2022/02/26 09:55:36;;;;;;;;;;;;;;;12.22;36.68;100226.34;1669450;86;20456;-72
2022/02/26 09:58:02;;;;;;;;;;;;;;;11.85;37.05;100234.33;1669391;86;20444;-70
2022/02/26 10:00:29;;;;;;;;;;;;;;;11.80;37.55;100233.06;1672345;84;21139;-67
2022/02/26 10:02:55;;;;;;;;;;;;;;;11.96;37.77;100239.06;1696697;84;20114;-66
2022/02/26 10:05:21;;;;;;;;;;;;;;;12.13;36.79;100240.61;1696038;84;20178;-68
2022/02/26 10:07:50;;;;;;;;;;;;;;;12.16;36.57;100245.47;1695827;84;20168;-68
2022/02/26 10:10:34;;;;;;;;;;;;;;;12.17;36.44;100248.47;1696220;84;20133;-69
2022/02/26 10:13:01;;;;;;;;;;;;;;;12.25;37.38;100251.88;1670285;84;21234;-69
2022/02/26 10:15:38;;;;;;;;;;;;;;;12.37;36.29;100247.20;1682904;84;20093;-69
2022/02/26 10:18:09;;;;;;;;;;;;;;;12.37;36.07;100249.39;1682866;84;20509;-68
2022/02/26 10:20:45;;;;;;;;;;;;;;;12.30;37.72;100253.70;1681721;84;20467;-67
2022/02/26 10:23:14;;;;;;;;;;;;;;;12.34;34.69;100265.16;1697043;83;20143;-68
2022/02/26 10:25:42;;;;;;;;;;;;;;;11.94;33.82;100260.00;1709514;84;21156;-71
2022/02/26 10:28:11;;;;;;;;;;;;;;;11.45;34.65;100261.52;1709677;84;20119;-71
2022/02/26 10:30:40;;;;;;;;;;;;;;;11.33;36.33;100261.76;1722120;82;20132;-71
2022/02/26 10:33:20;;;;;;;;;;;;;;;11.58;36.14;100278.56;1715474;82;20414;-72
2022/02/26 10:35:56;;;;;;;;;;;;;;;11.81;35.33;100264.39;1711031;83;20128;-73
2022/02/26 10:38:41;;;;;;;;;;;;;;;11.91;34.77;100273.00;1723985;83;20100;-71
2022/02/26 10:41:13;;;;;;;;;;;;;;;12.23;34.02;100270.63;1726772;81;20149;-68
2022/02/26 10:44:01;;;;;;;;;;;;;;;12.37;34.27;100266.48;1740187;82;20124;-76
2022/02/26 10:46:33;;;;;;;;;;;;;;;12.44;35.02;100275.94;1732036;82;20162;-71
2022/02/26 10:49:04;;;;;;;;;;;;;;;12.76;34.08;100272.13;1710780;84;20115;-68
2022/02/26 10:51:49;;;;;;;;;;;;;;;13.12;37.57;100271.25;1711064;84;20485;-68
2022/02/26 10:54:23;;;;;;;;;;;;;;;13.38;33.25;100268.64;1710652;84;20481;-73
2022/02/26 10:57:10;;;;;;;;;;;;;;;13.46;32.75;100274.20;1710529;84;20154;-70
2022/02/26 10:59:42;;;;;;;;;;;;;;;13.35;32.76;100274.23;1729567;82;20143;-78
2022/02/26 11:02:11;;;;;;;;;;;;;;;13.45;32.18;100270.38;1723826;82;20206;-73
2022/02/26 11:04:37;;;;;;;;;;;;;;;13.71;31.97;100271.31;1710679;84;21992;-73
2022/02/26 11:07:08;;;;;;;;;;;;;;;13.98;31.36;100273.00;1710590;83;20151;-74
2022/02/26 11:09:53;;;;;;;;;;;;;;;14.03;31.88;100269.27;1710705;83;20470;-73
2022/02/26 11:12:24;;;;;;;;;;;;;;;13.92;30.60;100279.80;1710561;83;20154;-75
2022/02/26 11:14:58;;;;;;;;;;;;;;;13.86;30.38;100271.45;1710904;83;20203;-75
2022/02/26 11:17:24;;;;;;;;;;;;;;;13.88;29.90;100280.19;1710658;83;21123;-76
2022/02/26 11:19:54;;;;;;;;;;;;;;;13.87;30.53;100275.23;1710789;84;20183;-77
2022/02/26 11:22:39;;;;;;;;;;;;;;;13.78;29.96;100279.94;1671847;85;20132;-71
2022/02/26 11:25:06;;;;;;;;;;;;;;;13.79;30.98;100285.71;1648056;84;20224;-76
2022/02/26 11:27:33;;;;;;;;;;;;;;;14.07;29.21;100269.70;1672723;86;20114;-68
2022/02/26 11:30:22;;;;;;;;;;;;;;;13.88;29.11;100282.95;1671650;84;20141;-69
2022/02/26 11:32:48;;;;;;;;;;;;;;;13.60;30.47;100287.09;1689523;83;20437;-68
2022/02/26 11:35:17;;;;;;;;;;;;;;;13.75;30.41;100290.23;1690402;85;20175;-68
2022/02/26 11:37:49;;;;;;;;;;;;;;;13.94;28.94;100286.38;1720885;83;20130;-68
2022/02/26 11:40:16;;;;;;;;;;;;;;;13.99;30.29;100278.77;1662111;86;20124;-69
2022/02/26 11:42:43;;;;;;;;;;;;;;;14.21;29.94;100288.89;1674429;84;21152;-76
2022/02/26 11:45:12;;;;;;;;;;;;;;;14.22;28.03;100282.23;1673649;84;20135;-74
2022/02/26 11:47:58;;;;;;;;;;;;;;;14.08;27.37;100289.27;1697328;83;20175;-79
2022/02/26 11:50:29;;;;;;;;;;;;;;;13.61;28.76;100291.47;1697562;84;20343;-73
2022/02/26 11:53:18;;;;;;;;;;;;;;;13.61;30.20;100293.66;1697376;84;20126;-72
2022/02/26 11:56:05;;;;;;;;;;;;;;;13.71;29.49;100304.98;1697309;84;20126;-70
2022/02/26 11:58:49;;;;;;;;;;;;;;;13.55;29.00;100299.89;1692153;84;20118;-69
2022/02/26 12:01:34;;;;;;;;;;;;;;;13.14;28.68;100300.69;1694114;84;20121;-71
2022/02/26 12:04:01;;;;;;;;;;;;;;;13.08;28.82;100295.88;1677704;84;20466;-70
2022/02/26 12:06:46;;;;;;;;;;;;;;;13.24;29.49;100296.33;1669165;84;20160;-77
2022/02/26 12:09:14;;;;;;;;;;;;;;;13.66;28.11;100289.39;1652186;84;21182;-75
2022/02/26 12:11:47;;;;;;;;;;;;;;;13.75;27.80;100292.19;1695721;83;20126;-84
2022/02/26 12:14:25;;;;;;;;;;;;;;;13.55;28.86;100288.04;1697238;83;20105;-76
2022/02/26 12:16:59;;;;;;;;;;;;;;;13.20;28.59;100300.84;1697244;83;20145;-78
2022/02/26 12:19:26;;;;;;;;;;;;;;;12.79;28.33;100298.24;1697234;84;20085;-80
2022/02/26 12:21:59;;;;;;;;;;;;;;;12.27;29.95;100296.42;1696479;84;21130;-75
2022/02/26 12:24:28;;;;;;;;;;;;;;;12.18;30.53;100299.64;1696475;84;20162;-72
2022/02/26 12:27:00;;;;;;;;;;;;;;;12.55;29.45;100293.05;1696243;84;20127;-76
2022/02/26 12:29:46;;;;;;;;;;;;;;;12.97;30.37;100303.33;1697021;84;20130;-77
2022/02/26 12:32:17;;;;;;;;;;;;;;;13.46;29.53;100293.51;1697346;83;20079;-78
2022/02/26 12:35:09;;;;;;;;;;;;;;;14.25;28.57;100287.11;1697417;84;21161;-68
2022/02/26 12:37:38;;;;;;;;;;;;;;;14.68;27.20;100286.34;1697639;84;20138;-67
2022/02/26 12:40:09;;;;;;;;;;;;;;;14.64;26.02;100293.66;1697420;84;20104;-67
2022/02/26 12:42:53;;;;;;;;;;;;;;;14.48;27.07;100296.90;1697241;83;20411;-69
2022/02/26 12:45:20;;;;;;;;;;;;;;;13.86;28.21;100295.69;1673461;84;20119;-69
2022/02/26 12:47:48;;;;;;;;;;;;;;;13.49;28.99;100297.02;1697357;84;21260;-68
2022/02/26 12:50:16;;;;;;;;;;;;;;;13.79;27.94;100300.08;1697277;84;20453;-68
2022/02/26 12:52:43;;;;;;;;;;;;;;;14.17;28.59;100301.14;1697418;84;20441;-69
2022/02/26 12:55:29;;;;;;;;;;;;;;;14.48;27.83;100298.28;1697717;84;20445;-69
2022/02/26 12:57:56;;;;;;;;;;;;;;;14.79;26.63;100287.65;1697383;84;20202;-69
2022/02/26 13:00:27;;;;;;;;;;;;;;;15.09;26.11;100292.15;1697442;84;21148;-69
2022/02/26 13:03:09;;;;;;;;;;;;;;;15.48;26.88;100287.52;1673429;83;20190;-68
2022/02/26 13:05:53;;;;;;;;;;;;;;;15.71;26.62;100299.16;1697446;84;20089;-69
2022/02/26 13:08:38;;;;;;;;;;;;;;;15.01;26.91;100299.92;1657914;84;20089;-69
2022/02/26 13:11:04;;;;;;;;;;;;;;;13.97;27.24;100294.02;1697357;84;20148;-68
2022/02/26 13:14:04;;;;;;;;;;;;;;;13.18;27.98;100302.54;1697451;84;20441;-67